Cerejeira, Brazil
Current Conditions -  °F | °C
As of 11:00 AM on Friday 28 Nov 2014 (Local Time) from SBVH Reporting Station
Broken Clouds Broken Clouds  
Wind Chill: 77°   Ceiling: 1000
Heat Index: 78°   Visibility: 6mi
Dew Point: 73°   Wind: 3mph
Humidity: 89%   Direction: 10°N
Pressure: 29.97"   Gusts: NA
Location:  13.19°S, 60.81°W
Report Text: SBVH 281500Z 01003KT 9999 BKN010 SCT070 25/23 Q1015
Loading
Personal Weather Stations






























Interactive Weather Map New forecast layout! Learn more

10-Day Weather Forecast

Advertisements
Track Severe Weather on mobile